sensor_id;sensor_type;location;lat;lon;timestamp;pressure;altitude;pressure_sealevel;temperature;humidity
41230;BME280;26964;50.428;19.218;2022-08-11T00:00:48;1027.1;;;14.6;54.4
41230;BME280;26964;50.428;19.218;2022-08-11T00:05:53;1027.1;;;14.6;54.7
41230;BME280;26964;50.428;19.218;2022-08-11T00:10:53;1027.1;;;14.7;54.7
41230;BME280;26964;50.428;19.218;2022-08-11T00:15:48;1027.1;;;14.7;54.9
41230;BME280;26964;50.428;19.218;2022-08-11T00:20:49;1027.1;;;14.7;55.1
41230;BME280;26964;50.428;19.218;2022-08-11T00:25:50;1027.0;;;14.8;55.3
41230;BME280;26964;50.428;19.218;2022-08-11T00:30:50;1027.0;;;14.8;55.5
41230;BME280;26964;50.428;19.218;2022-08-11T00:35:50;1027.1;;;14.9;55.5
41230;BME280;26964;50.428;19.218;2022-08-11T00:40:54;1027.0;;;14.8;55.5
41230;BME280;26964;50.428;19.218;2022-08-11T00:50:56;1027.1;;;14.7;55.8
41230;BME280;26964;50.428;19.218;2022-08-11T01:40:51;1026.8;;;14.6;57.3
41230;BME280;26964;50.428;19.218;2022-08-11T01:45:53;1026.7;;;14.7;57.4
41230;BME280;26964;50.428;19.218;2022-08-11T01:50:55;1026.8;;;14.7;57.4
41230;BME280;26964;50.428;19.218;2022-08-11T01:55:53;1026.8;;;14.6;57.5
41230;BME280;26964;50.428;19.218;2022-08-11T02:00:53;1026.8;;;14.4;57.8
41230;BME280;26964;50.428;19.218;2022-08-11T02:10:53;1026.7;;;14.4;58.3
41230;BME280;26964;50.428;19.218;2022-08-11T02:15:50;1026.7;;;14.3;58.3
41230;BME280;26964;50.428;19.218;2022-08-11T02:20:54;1026.7;;;14.2;58.4
41230;BME280;26964;50.428;19.218;2022-08-11T02:25:53;1026.7;;;14.1;58.5
41230;BME280;26964;50.428;19.218;2022-08-11T02:30:55;1026.8;;;14.0;58.7
41230;BME280;26964;50.428;19.218;2022-08-11T02:40:55;1026.9;;;13.9;59.2
41230;BME280;26964;50.428;19.218;2022-08-11T02:45:53;1026.8;;;13.9;59.4
41230;BME280;26964;50.428;19.218;2022-08-11T02:50:55;1026.7;;;13.9;59.6
41230;BME280;26964;50.428;19.218;2022-08-11T02:55:53;1026.7;;;13.9;59.7
41230;BME280;26964;50.428;19.218;2022-08-11T03:00:54;1026.8;;;13.8;59.9
41230;BME280;26964;50.428;19.218;2022-08-11T03:05:53;1026.8;;;13.8;60.3
41230;BME280;26964;50.428;19.218;2022-08-11T03:10:55;1026.8;;;13.7;60.4
41230;BME280;26964;50.428;19.218;2022-08-11T03:15:51;1026.8;;;13.6;60.5
41230;BME280;26964;50.428;19.218;2022-08-11T03:20:58;1026.8;;;13.5;60.7
41230;BME280;26964;50.428;19.218;2022-08-11T03:25:53;1026.8;;;13.5;61.0
41230;BME280;26964;50.428;19.218;2022-08-11T03:30:53;1026.8;;;13.5;61.1
41230;BME280;26964;50.428;19.218;2022-08-11T03:35:54;1026.9;;;13.5;61.2
41230;BME280;26964;50.428;19.218;2022-08-11T03:45:54;1026.9;;;13.5;61.4
41230;BME280;26964;50.428;19.218;2022-08-11T04:35:52;1026.8;;;13.7;62.3
41230;BME280;26964;50.428;19.218;2022-08-11T05:00:52;1026.9;;;14.3;62.4
41230;BME280;26964;50.428;19.218;2022-08-11T05:05:53;1026.9;;;14.4;62.4
41230;BME280;26964;50.428;19.218;2022-08-11T05:15:52;1026.9;;;14.6;62.5
41230;BME280;26964;50.428;19.218;2022-08-11T05:20:51;1026.9;;;14.8;62.5
41230;BME280;26964;50.428;19.218;2022-08-11T05:25:53;1026.9;;;14.9;62.6
41230;BME280;26964;50.428;19.218;2022-08-11T05:30:49;1026.8;;;15.0;62.6
41230;BME280;26964;50.428;19.218;2022-08-11T05:35:49;1026.9;;;15.2;62.8
41230;BME280;26964;50.428;19.218;2022-08-11T05:40:49;1026.9;;;15.3;62.8
41230;BME280;26964;50.428;19.218;2022-08-11T05:50:51;1027.0;;;15.6;62.9
41230;BME280;26964;50.428;19.218;2022-08-11T05:55:48;1026.9;;;15.8;62.9
41230;BME280;26964;50.428;19.218;2022-08-11T06:00:47;1027.0;;;16.0;63.2
41230;BME280;26964;50.428;19.218;2022-08-11T06:05:48;1027.1;;;16.2;63.0
41230;BME280;26964;50.428;19.218;2022-08-11T06:10:47;1027.2;;;16.4;63.1
41230;BME280;26964;50.428;19.218;2022-08-11T06:15:49;1027.1;;;16.6;63.1
41230;BME280;26964;50.428;19.218;2022-08-11T06:20:50;1027.2;;;16.8;63.0
41230;BME280;26964;50.428;19.218;2022-08-11T06:25:48;1027.2;;;17.1;62.8
41230;BME280;26964;50.428;19.218;2022-08-11T06:30:48;1027.1;;;17.4;62.7
41230;BME280;26964;50.428;19.218;2022-08-11T06:40:51;1027.1;;;18.0;62.2
41230;BME280;26964;50.428;19.218;2022-08-11T06:45:52;1027.2;;;18.3;62.1
41230;BME280;26964;50.428;19.218;2022-08-11T06:50:49;1027.2;;;18.6;61.9
41230;BME280;26964;50.428;19.218;2022-08-11T06:55:48;1027.2;;;18.9;61.5
41230;BME280;26964;50.428;19.218;2022-08-11T07:00:48;1027.1;;;19.2;61.0
41230;BME280;26964;50.428;19.218;2022-08-11T07:05:50;1027.1;;;19.5;60.6
41230;BME280;26964;50.428;19.218;2022-08-11T07:15:51;1027.0;;;20.1;59.8
41230;BME280;26964;50.428;19.218;2022-08-11T07:20:48;1027.0;;;20.3;58.5
41230;BME280;26964;50.428;19.218;2022-08-11T07:25:51;1027.0;;;20.4;58.1
41230;BME280;26964;50.428;19.218;2022-08-11T07:30:48;1027.0;;;20.6;58.4
41230;BME280;26964;50.428;19.218;2022-08-11T07:35:49;1027.0;;;20.8;57.7
41230;BME280;26964;50.428;19.218;2022-08-11T07:40:47;1027.1;;;21.0;56.7
41230;BME280;26964;50.428;19.218;2022-08-11T07:45:48;1027.2;;;21.1;57.4
41230;BME280;26964;50.428;19.218;2022-08-11T07:50:48;1027.1;;;21.3;57.1
41230;BME280;26964;50.428;19.218;2022-08-11T07:55:48;1027.2;;;21.5;56.0
41230;BME280;26964;50.428;19.218;2022-08-11T08:00:49;1027.2;;;21.5;55.7
41230;BME280;26964;50.428;19.218;2022-08-11T08:05:48;1027.1;;;21.4;55.6
41230;BME280;26964;50.428;19.218;2022-08-11T08:10:48;1027.2;;;21.3;55.1
41230;BME280;26964;50.428;19.218;2022-08-11T08:15:47;1027.2;;;21.4;54.6
41230;BME280;26964;50.428;19.218;2022-08-11T08:20:48;1027.1;;;21.5;54.8
41230;BME280;26964;50.428;19.218;2022-08-11T08:25:51;1027.1;;;21.7;54.0
41230;BME280;26964;50.428;19.218;2022-08-11T08:30:48;1027.0;;;22.0;53.8
41230;BME280;26964;50.428;19.218;2022-08-11T08:35:53;1027.1;;;22.1;51.9
41230;BME280;26964;50.428;19.218;2022-08-11T08:40:51;1027.0;;;22.1;52.4
41230;BME280;26964;50.428;19.218;2022-08-11T08:45:47;1026.9;;;22.2;52.2
41230;BME280;26964;50.428;19.218;2022-08-11T08:50:52;1027.0;;;22.4;52.1
41230;BME280;26964;50.428;19.218;2022-08-11T08:55:47;1026.8;;;22.6;51.4
41230;BME280;26964;50.428;19.218;2022-08-11T09:00:50;1026.8;;;22.6;50.7
41230;BME280;26964;50.428;19.218;2022-08-11T09:05:47;1026.9;;;22.8;50.9
41230;BME280;26964;50.428;19.218;2022-08-11T09:10:49;1026.7;;;22.9;50.9
41230;BME280;26964;50.428;19.218;2022-08-11T09:15:47;1026.7;;;23.1;49.3
41230;BME280;26964;50.428;19.218;2022-08-11T09:20:47;1026.7;;;23.4;49.2
41230;BME280;26964;50.428;19.218;2022-08-11T09:25:51;1026.7;;;23.5;48.5
41230;BME280;26964;50.428;19.218;2022-08-11T09:30:51;1026.6;;;23.7;48.4
41230;BME280;26964;50.428;19.218;2022-08-11T09:35:50;1026.7;;;23.9;47.5
41230;BME280;26964;50.428;19.218;2022-08-11T09:40:48;1026.6;;;24.1;45.6
41230;BME280;26964;50.428;19.218;2022-08-11T09:45:49;1026.6;;;24.2;44.8
41230;BME280;26964;50.428;19.218;2022-08-11T09:50:49;1026.6;;;24.1;44.0
41230;BME280;26964;50.428;19.218;2022-08-11T09:55:48;1026.6;;;23.8;44.8
41230;BME280;26964;50.428;19.218;2022-08-11T10:00:49;1026.6;;;23.8;44.4
41230;BME280;26964;50.428;19.218;2022-08-11T10:05:51;1026.5;;;24.1;44.9
41230;BME280;26964;50.428;19.218;2022-08-11T10:10:48;1026.4;;;24.2;43.6
41230;BME280;26964;50.428;19.218;2022-08-11T10:15:47;1026.6;;;23.8;43.8
41230;BME280;26964;50.428;19.218;2022-08-11T10:20:49;1026.3;;;24.0;44.0
41230;BME280;26964;50.428;19.218;2022-08-11T10:25:47;1026.3;;;24.0;43.1
41230;BME280;26964;50.428;19.218;2022-08-11T10:30:50;1026.1;;;24.1;43.5
41230;BME280;26964;50.428;19.218;2022-08-11T10:35:47;1026.1;;;24.5;43.4
41230;BME280;26964;50.428;19.218;2022-08-11T10:40:47;1026.0;;;24.7;42.9
41230;BME280;26964;50.428;19.218;2022-08-11T10:45:48;1026.1;;;24.7;41.5
41230;BME280;26964;50.428;19.218;2022-08-11T10:50:48;1026.0;;;24.8;42.0
41230;BME280;26964;50.428;19.218;2022-08-11T10:55:47;1025.8;;;24.9;41.9
41230;BME280;26964;50.428;19.218;2022-08-11T11:00:47;1025.8;;;25.1;41.3
41230;BME280;26964;50.428;19.218;2022-08-11T11:05:47;1025.7;;;25.3;39.6
41230;BME280;26964;50.428;19.218;2022-08-11T11:10:47;1025.7;;;25.1;40.3
41230;BME280;26964;50.428;19.218;2022-08-11T11:20:52;1025.5;;;24.6;40.0
41230;BME280;26964;50.428;19.218;2022-08-11T11:35:54;1025.4;;;23.9;40.3
41230;BME280;26964;50.428;19.218;2022-08-11T11:40:48;1025.4;;;23.9;40.4
41230;BME280;26964;50.428;19.218;2022-08-11T11:45:47;1025.4;;;23.9;40.5
41230;BME280;26964;50.428;19.218;2022-08-11T11:50:48;1025.3;;;23.9;40.3
41230;BME280;26964;50.428;19.218;2022-08-11T11:55:47;1025.3;;;23.9;40.0
41230;BME280;26964;50.428;19.218;2022-08-11T12:00:47;1025.2;;;24.1;40.3
41230;BME280;26964;50.428;19.218;2022-08-11T12:05:48;1025.1;;;24.1;40.4
41230;BME280;26964;50.428;19.218;2022-08-11T12:10:49;1025.1;;;24.5;40.0
41230;BME280;26964;50.428;19.218;2022-08-11T12:15:47;1025.2;;;24.4;39.0
41230;BME280;26964;50.428;19.218;2022-08-11T12:20:47;1025.0;;;24.2;39.5
41230;BME280;26964;50.428;19.218;2022-08-11T12:25:49;1025.1;;;24.1;39.7
41230;BME280;26964;50.428;19.218;2022-08-11T12:30:47;1025.0;;;23.8;39.5
41230;BME280;26964;50.428;19.218;2022-08-11T12:35:51;1024.9;;;23.9;39.6
41230;BME280;26964;50.428;19.218;2022-08-11T12:40:49;1024.8;;;24.2;38.8
41230;BME280;26964;50.428;19.218;2022-08-11T12:45:48;1024.7;;;24.3;39.0
41230;BME280;26964;50.428;19.218;2022-08-11T12:50:53;1024.6;;;24.6;38.2
41230;BME280;26964;50.428;19.218;2022-08-11T12:55:48;1024.5;;;24.8;38.5
41230;BME280;26964;50.428;19.218;2022-08-11T13:00:47;1024.5;;;25.1;38.5
41230;BME280;26964;50.428;19.218;2022-08-11T13:05:47;1024.5;;;25.3;38.8
41230;BME280;26964;50.428;19.218;2022-08-11T13:10:49;1024.5;;;25.1;38.0
41230;BME280;26964;50.428;19.218;2022-08-11T13:15:48;1024.7;;;24.5;38.2
41230;BME280;26964;50.428;19.218;2022-08-11T13:20:48;1024.6;;;24.5;38.5
41230;BME280;26964;50.428;19.218;2022-08-11T13:25:48;1024.5;;;24.8;38.2
41230;BME280;26964;50.428;19.218;2022-08-11T13:30:48;1024.4;;;25.1;38.0
41230;BME280;26964;50.428;19.218;2022-08-11T13:35:51;1024.5;;;25.5;37.6
41230;BME280;26964;50.428;19.218;2022-08-11T13:40:50;1024.9;;;25.3;37.5
41230;BME280;26964;50.428;19.218;2022-08-11T13:45:49;1025.1;;;24.3;38.0
41230;BME280;26964;50.428;19.218;2022-08-11T13:50:49;1025.2;;;23.2;38.9
41230;BME280;26964;50.428;19.218;2022-08-11T13:55:49;1025.2;;;22.4;40.0
41230;BME280;26964;50.428;19.218;2022-08-11T14:00:52;1025.4;;;21.5;41.2
41230;BME280;26964;50.428;19.218;2022-08-11T14:05:51;1025.5;;;20.5;43.9
41230;BME280;26964;50.428;19.218;2022-08-11T14:10:49;1025.3;;;19.5;44.8
41230;BME280;26964;50.428;19.218;2022-08-11T14:15:50;1025.4;;;18.9;45.9
41230;BME280;26964;50.428;19.218;2022-08-11T14:20:53;1025.4;;;18.5;46.7
41230;BME280;26964;50.428;19.218;2022-08-11T14:25:49;1025.4;;;18.3;47.5
41230;BME280;26964;50.428;19.218;2022-08-11T14:30:49;1025.4;;;18.2;48.2
41230;BME280;26964;50.428;19.218;2022-08-11T14:35:52;1025.4;;;18.1;49.0
41230;BME280;26964;50.428;19.218;2022-08-11T14:40:49;1025.4;;;18.1;49.5
41230;BME280;26964;50.428;19.218;2022-08-11T14:45:49;1025.4;;;18.1;50.2
41230;BME280;26964;50.428;19.218;2022-08-11T14:50:49;1025.4;;;18.1;50.5
41230;BME280;26964;50.428;19.218;2022-08-11T14:55:50;1025.5;;;18.3;50.9
41230;BME280;26964;50.428;19.218;2022-08-11T15:00:51;1025.5;;;18.4;51.3
41230;BME280;26964;50.428;19.218;2022-08-11T15:05:50;1025.4;;;18.9;51.5
41230;BME280;26964;50.428;19.218;2022-08-11T15:10:51;1025.3;;;19.5;51.3
41230;BME280;26964;50.428;19.218;2022-08-11T15:15:49;1025.2;;;19.8;51.2
41230;BME280;26964;50.428;19.218;2022-08-11T15:20:49;1025.2;;;20.3;51.4
41230;BME280;26964;50.428;19.218;2022-08-11T15:25:54;1025.2;;;20.7;51.3
41230;BME280;26964;50.428;19.218;2022-08-11T15:30:53;1025.2;;;21.1;51.0
41230;BME280;26964;50.428;19.218;2022-08-11T15:35:49;1025.2;;;21.4;50.9
41230;BME280;26964;50.428;19.218;2022-08-11T15:40:49;1025.2;;;21.7;51.0
41230;BME280;26964;50.428;19.218;2022-08-11T15:45:51;1025.1;;;21.9;50.8
41230;BME280;26964;50.428;19.218;2022-08-11T15:50:51;1025.1;;;22.0;50.9
41230;BME280;26964;50.428;19.218;2022-08-11T15:55:49;1025.0;;;22.3;50.8
41230;BME280;26964;50.428;19.218;2022-08-11T16:00:49;1025.1;;;22.6;50.5
41230;BME280;26964;50.428;19.218;2022-08-11T16:05:49;1025.2;;;22.8;50.3
41230;BME280;26964;50.428;19.218;2022-08-11T16:10:49;1025.2;;;22.8;50.1
41230;BME280;26964;50.428;19.218;2022-08-11T16:15:51;1025.2;;;22.7;50.3
41230;BME280;26964;50.428;19.218;2022-08-11T16:20:50;1025.2;;;22.5;50.3
41230;BME280;26964;50.428;19.218;2022-08-11T16:25:49;1025.1;;;22.2;50.3
41230;BME280;26964;50.428;19.218;2022-08-11T16:30:50;1025.0;;;21.7;50.5
41230;BME280;26964;50.428;19.218;2022-08-11T16:35:49;1025.0;;;21.3;50.7
41230;BME280;26964;50.428;19.218;2022-08-11T16:40:51;1025.0;;;21.0;50.9
41230;BME280;26964;50.428;19.218;2022-08-11T16:45:49;1024.9;;;20.8;51.1
41230;BME280;26964;50.428;19.218;2022-08-11T16:50:49;1024.9;;;20.6;51.3
41230;BME280;26964;50.428;19.218;2022-08-11T16:55:49;1024.9;;;20.4;51.6
41230;BME280;26964;50.428;19.218;2022-08-11T17:00:50;1024.9;;;20.3;51.8
41230;BME280;26964;50.428;19.218;2022-08-11T17:05:50;1024.9;;;20.2;52.0
41230;BME280;26964;50.428;19.218;2022-08-11T17:10:50;1024.8;;;20.1;52.2
41230;BME280;26964;50.428;19.218;2022-08-11T17:15:50;1024.8;;;20.0;52.3
41230;BME280;26964;50.428;19.218;2022-08-11T17:20:48;1024.8;;;19.9;52.5
41230;BME280;26964;50.428;19.218;2022-08-11T17:25:50;1024.7;;;19.8;52.7
41230;BME280;26964;50.428;19.218;2022-08-11T17:30:49;1024.7;;;19.7;52.8
41230;BME280;26964;50.428;19.218;2022-08-11T17:35:49;1024.8;;;19.6;53.0
41230;BME280;26964;50.428;19.218;2022-08-11T17:40:53;1024.8;;;19.5;53.3
41230;BME280;26964;50.428;19.218;2022-08-11T17:45:49;1024.8;;;19.5;53.4
41230;BME280;26964;50.428;19.218;2022-08-11T17:50:50;1024.8;;;19.4;53.6
41230;BME280;26964;50.428;19.218;2022-08-11T17:55:50;1024.8;;;19.3;53.7
41230;BME280;26964;50.428;19.218;2022-08-11T18:00:49;1024.9;;;19.2;53.9
41230;BME280;26964;50.428;19.218;2022-08-11T18:05:50;1024.8;;;19.1;54.2
41230;BME280;26964;50.428;19.218;2022-08-11T18:10:49;1024.8;;;18.9;54.4
41230;BME280;26964;50.428;19.218;2022-08-11T18:15:49;1024.8;;;18.7;54.4
41230;BME280;26964;50.428;19.218;2022-08-11T18:20:49;1024.8;;;18.5;54.8
41230;BME280;26964;50.428;19.218;2022-08-11T18:25:51;1024.9;;;18.3;55.0
41230;BME280;26964;50.428;19.218;2022-08-11T18:30:49;1025.0;;;18.2;55.3
41230;BME280;26964;50.428;19.218;2022-08-11T18:35:52;1025.0;;;18.0;55.5
41230;BME280;26964;50.428;19.218;2022-08-11T18:40:50;1025.0;;;17.9;55.8
41230;BME280;26964;50.428;19.218;2022-08-11T18:45:56;1025.2;;;17.6;56.0
41230;BME280;26964;50.428;19.218;2022-08-11T18:50:52;1025.2;;;17.4;56.4
41230;BME280;26964;50.428;19.218;2022-08-11T18:55:49;1025.2;;;17.3;56.6
41230;BME280;26964;50.428;19.218;2022-08-11T19:00:49;1025.4;;;17.2;56.9
41230;BME280;26964;50.428;19.218;2022-08-11T19:05:49;1025.3;;;17.1;57.1
41230;BME280;26964;50.428;19.218;2022-08-11T19:10:49;1025.2;;;17.0;57.3
41230;BME280;26964;50.428;19.218;2022-08-11T19:15:49;1025.3;;;17.0;57.5
41230;BME280;26964;50.428;19.218;2022-08-11T19:20:51;1025.4;;;16.9;57.7
41230;BME280;26964;50.428;19.218;2022-08-11T19:25:49;1025.3;;;16.8;57.9
41230;BME280;26964;50.428;19.218;2022-08-11T19:30:49;1025.3;;;16.7;58.1
41230;BME280;26964;50.428;19.218;2022-08-11T19:35:49;1025.3;;;16.5;58.3
41230;BME280;26964;50.428;19.218;2022-08-11T19:40:50;1025.3;;;16.4;58.6
41230;BME280;26964;50.428;19.218;2022-08-11T19:45:49;1025.2;;;16.3;58.8
41230;BME280;26964;50.428;19.218;2022-08-11T19:50:49;1025.2;;;16.2;59.0
41230;BME280;26964;50.428;19.218;2022-08-11T19:55:52;1025.2;;;16.0;59.2
41230;BME280;26964;50.428;19.218;2022-08-11T20:00:49;1025.1;;;15.9;59.4
41230;BME280;26964;50.428;19.218;2022-08-11T20:05:49;1025.2;;;15.9;59.6
41230;BME280;26964;50.428;19.218;2022-08-11T20:10:49;1025.0;;;15.9;59.8
41230;BME280;26964;50.428;19.218;2022-08-11T20:15:49;1024.9;;;15.9;59.9
41230;BME280;26964;50.428;19.218;2022-08-11T20:20:51;1025.0;;;15.9;60.0
41230;BME280;26964;50.428;19.218;2022-08-11T20:25:49;1025.0;;;15.8;60.0
41230;BME280;26964;50.428;19.218;2022-08-11T20:30:49;1025.0;;;15.7;60.3
41230;BME280;26964;50.428;19.218;2022-08-11T20:35:48;1024.9;;;15.6;60.4
41230;BME280;26964;50.428;19.218;2022-08-11T20:40:48;1025.0;;;15.6;60.5
41230;BME280;26964;50.428;19.218;2022-08-11T20:45:48;1025.0;;;15.5;60.6
41230;BME280;26964;50.428;19.218;2022-08-11T20:50:49;1025.0;;;15.4;60.8
41230;BME280;26964;50.428;19.218;2022-08-11T20:55:49;1024.9;;;15.3;61.1
41230;BME280;26964;50.428;19.218;2022-08-11T21:00:51;1025.0;;;15.2;61.3
41230;BME280;26964;50.428;19.218;2022-08-11T21:05:49;1025.0;;;15.2;61.3
41230;BME280;26964;50.428;19.218;2022-08-11T21:10:48;1025.1;;;15.2;61.4
41230;BME280;26964;50.428;19.218;2022-08-11T21:15:48;1025.1;;;15.1;61.5
41230;BME280;26964;50.428;19.218;2022-08-11T21:20:49;1025.0;;;15.1;61.7
41230;BME280;26964;50.428;19.218;2022-08-11T21:25:50;1025.1;;;15.1;61.8
41230;BME280;26964;50.428;19.218;2022-08-11T21:30:49;1025.0;;;15.0;61.9
41230;BME280;26964;50.428;19.218;2022-08-11T21:35:48;1025.0;;;15.0;62.0
41230;BME280;26964;50.428;19.218;2022-08-11T21:40:49;1025.0;;;15.0;62.0
41230;BME280;26964;50.428;19.218;2022-08-11T21:45:53;1025.1;;;14.9;62.1
41230;BME280;26964;50.428;19.218;2022-08-11T21:50:48;1025.1;;;14.9;62.2
41230;BME280;26964;50.428;19.218;2022-08-11T21:55:49;1025.2;;;14.8;62.5
41230;BME280;26964;50.428;19.218;2022-08-11T22:00:48;1025.1;;;14.7;62.7
41230;BME280;26964;50.428;19.218;2022-08-11T22:05:49;1025.2;;;14.7;62.8
41230;BME280;26964;50.428;19.218;2022-08-11T22:10:48;1025.1;;;14.6;62.9
41230;BME280;26964;50.428;19.218;2022-08-11T22:15:48;1025.2;;;14.6;62.9
41230;BME280;26964;50.428;19.218;2022-08-11T22:20:48;1025.2;;;14.5;63.0
41230;BME280;26964;50.428;19.218;2022-08-11T22:25:48;1025.3;;;14.4;63.1
41230;BME280;26964;50.428;19.218;2022-08-11T22:30:48;1025.3;;;14.3;63.3
41230;BME280;26964;50.428;19.218;2022-08-11T22:35:49;1025.3;;;14.2;63.4
41230;BME280;26964;50.428;19.218;2022-08-11T22:40:50;1025.2;;;14.2;63.6
41230;BME280;26964;50.428;19.218;2022-08-11T22:45:48;1025.3;;;14.1;63.5
41230;BME280;26964;50.428;19.218;2022-08-11T22:50:48;1025.3;;;14.1;63.6
41230;BME280;26964;50.428;19.218;2022-08-11T22:55:49;1025.2;;;14.0;63.9
41230;BME280;26964;50.428;19.218;2022-08-11T23:00:48;1025.1;;;13.9;64.0
41230;BME280;26964;50.428;19.218;2022-08-11T23:05:48;1025.1;;;13.9;64.2
41230;BME280;26964;50.428;19.218;2022-08-11T23:10:48;1025.1;;;14.0;64.3
41230;BME280;26964;50.428;19.218;2022-08-11T23:15:48;1024.9;;;13.9;64.3
41230;BME280;26964;50.428;19.218;2022-08-11T23:20:48;1024.8;;;13.9;64.3
41230;BME280;26964;50.428;19.218;2022-08-11T23:25:52;1024.8;;;13.8;64.3
41230;BME280;26964;50.428;19.218;2022-08-11T23:30:50;1024.8;;;13.7;64.4
41230;BME280;26964;50.428;19.218;2022-08-11T23:35:50;1024.8;;;13.6;64.5
41230;BME280;26964;50.428;19.218;2022-08-11T23:40:48;1024.8;;;13.6;64.8
41230;BME280;26964;50.428;19.218;2022-08-11T23:45:48;1024.8;;;13.6;64.9
41230;BME280;26964;50.428;19.218;2022-08-11T23:50:48;1024.8;;;13.5;65.0
41230;BME280;26964;50.428;19.218;2022-08-11T23:55:48;1024.8;;;13.5;65.2
